createdAt,value
2019-01-20T00:00:59.529Z,982.32
2019-01-20T00:01:59.713Z,982.30
2019-01-20T00:02:59.889Z,982.34
2019-01-20T00:04:00.068Z,982.29
2019-01-20T00:05:00.254Z,982.29
2019-01-20T00:06:00.422Z,982.30
2019-01-20T00:07:00.595Z,982.22
2019-01-20T00:08:00.768Z,982.27
2019-01-20T00:09:00.941Z,982.25
2019-01-20T00:10:01.114Z,982.23
2019-01-20T00:11:01.289Z,982.23
2019-01-20T00:12:01.478Z,982.18
2019-01-20T00:13:01.640Z,982.21
2019-01-20T00:14:01.815Z,982.23
2019-01-20T00:15:01.990Z,982.22
2019-01-20T00:16:02.169Z,982.26
2019-01-20T00:17:02.345Z,982.25
2019-01-20T00:18:02.521Z,982.26
2019-01-20T00:19:02.703Z,982.25
2019-01-20T00:20:02.872Z,982.26
2019-01-20T00:21:03.042Z,982.23
2019-01-20T00:22:03.222Z,982.23
2019-01-20T00:23:03.399Z,982.22
2019-01-20T00:24:03.573Z,982.16
2019-01-20T00:25:03.773Z,982.17
2019-01-20T00:26:03.929Z,982.17
2019-01-20T00:27:04.116Z,982.14
2019-01-20T00:28:04.291Z,982.14
2019-01-20T00:29:04.467Z,982.14
2019-01-20T00:30:04.647Z,982.12
2019-01-20T00:31:04.824Z,982.15
2019-01-20T00:32:05.006Z,982.12
2019-01-20T00:33:05.180Z,982.11
2019-01-20T00:34:05.403Z,982.13
2019-01-20T00:35:05.534Z,982.10
2019-01-20T00:36:05.712Z,982.12
2019-01-20T00:37:05.887Z,982.15
2019-01-20T00:38:06.069Z,982.12
2019-01-20T00:39:06.249Z,982.12
2019-01-20T00:40:06.424Z,982.12
2019-01-20T00:41:06.602Z,982.12
2019-01-20T00:42:06.782Z,982.09
2019-01-20T00:43:06.957Z,982.09
2019-01-20T00:44:07.131Z,982.09
2019-01-20T00:45:07.312Z,982.07
2019-01-20T00:46:07.492Z,982.07
2019-01-20T00:47:07.665Z,982.07
2019-01-20T00:48:07.846Z,982.05
2019-01-20T00:49:08.028Z,982.04
2019-01-20T00:50:08.204Z,982.07
2019-01-20T00:51:08.385Z,982.02
2019-01-20T00:52:08.564Z,982.04
2019-01-20T00:53:08.746Z,982.02
2019-01-20T00:54:08.912Z,982.00
2019-01-20T00:55:09.086Z,982.03
2019-01-20T00:56:09.260Z,982.05
2019-01-20T00:57:09.441Z,981.98
2019-01-20T00:58:09.610Z,982.03
2019-01-20T00:59:09.786Z,981.96
2019-01-20T01:00:09.966Z,981.98
2019-01-20T01:01:10.146Z,981.99
2019-01-20T01:02:10.308Z,981.97
2019-01-20T01:03:10.486Z,981.94
2019-01-20T01:04:10.662Z,981.93
2019-01-20T01:05:10.840Z,982.00
2019-01-20T01:06:11.014Z,981.99
2019-01-20T01:07:11.186Z,982.03
2019-01-20T01:08:11.362Z,981.98
2019-01-20T01:09:11.531Z,982.02
2019-01-20T01:10:12.241Z,982.01
2019-01-20T01:11:11.918Z,982.02
2019-01-20T01:12:12.091Z,982.02
2019-01-20T01:13:12.260Z,982.01
2019-01-20T01:14:12.445Z,982.03
2019-01-20T01:15:12.617Z,981.99
2019-01-20T01:16:12.792Z,982.00
2019-01-20T01:17:12.978Z,981.99
2019-01-20T01:18:13.151Z,981.99
2019-01-20T01:19:13.326Z,982.03
2019-01-20T01:20:13.508Z,982.01
2019-01-20T01:21:13.681Z,981.99
2019-01-20T01:22:13.857Z,982.04
2019-01-20T01:23:14.037Z,982.03
2019-01-20T01:24:14.204Z,982.06
2019-01-20T01:25:14.386Z,982.05
2019-01-20T01:26:14.561Z,982.09
2019-01-20T01:27:14.730Z,982.05
2019-01-20T01:28:14.906Z,982.04
2019-01-20T01:29:15.077Z,982.01
2019-01-20T01:30:15.257Z,982.03
2019-01-20T01:31:15.435Z,982.03
2019-01-20T01:32:15.605Z,982.03
2019-01-20T01:33:15.788Z,982.02
2019-01-20T01:34:15.943Z,982.02
2019-01-20T01:35:16.121Z,982.02
2019-01-20T01:36:16.304Z,982.02
2019-01-20T01:37:16.475Z,982.07
2019-01-20T01:38:16.653Z,982.02
2019-01-20T01:39:16.832Z,982.05
2019-01-20T01:40:17.003Z,982.03
2019-01-20T01:41:17.173Z,981.99
2019-01-20T01:42:17.367Z,981.99
2019-01-20T01:43:17.532Z,982.02
2019-01-20T01:44:17.713Z,982.00
2019-01-20T01:45:17.883Z,982.00
2019-01-20T01:46:18.122Z,982.00
2019-01-20T01:47:18.240Z,982.03
2019-01-20T01:48:18.417Z,982.01
2019-01-20T01:49:18.591Z,982.03
2019-01-20T01:50:18.771Z,982.01
2019-01-20T01:51:18.947Z,982.03
2019-01-20T01:52:19.109Z,982.04
2019-01-20T01:53:19.286Z,982.01
2019-01-20T01:54:19.457Z,981.99
2019-01-20T01:55:19.633Z,982.01
2019-01-20T01:56:19.809Z,982.03
2019-01-20T01:57:19.985Z,982.03
2019-01-20T01:58:20.161Z,982.06
2019-01-20T01:59:20.335Z,982.05
2019-01-20T02:00:20.510Z,982.06
2019-01-20T02:01:20.683Z,982.06
2019-01-20T02:02:20.862Z,982.03
2019-01-20T02:03:21.034Z,982.04
2019-01-20T02:04:21.208Z,982.04
2019-01-20T02:05:21.384Z,982.04
2019-01-20T02:06:21.559Z,982.05
2019-01-20T02:07:21.736Z,982.02
2019-01-20T02:08:21.897Z,982.00
2019-01-20T02:09:22.095Z,982.01
2019-01-20T02:10:22.270Z,982.01
2019-01-20T02:11:22.441Z,981.99
2019-01-20T02:12:22.614Z,981.97
2019-01-20T02:13:22.957Z,981.97
2019-01-20T02:14:22.969Z,981.96
2019-01-20T02:15:23.142Z,981.94
2019-01-20T02:16:23.316Z,981.94
2019-01-20T02:17:23.485Z,981.92
2019-01-20T02:18:23.665Z,981.94
2019-01-20T02:19:23.838Z,981.91
2019-01-20T02:20:24.015Z,981.95
2019-01-20T02:21:24.186Z,981.94
2019-01-20T02:22:24.365Z,982.00
2019-01-20T02:23:24.541Z,981.99
2019-01-20T02:24:24.714Z,981.97
2019-01-20T02:25:24.899Z,982.00
2019-01-20T02:26:25.069Z,981.99
2019-01-20T02:27:25.242Z,982.00
2019-01-20T02:28:25.419Z,981.96
2019-01-20T02:29:25.592Z,981.99
2019-01-20T02:30:25.771Z,981.98
2019-01-20T02:31:25.954Z,982.01
2019-01-20T02:32:26.131Z,981.99
2019-01-20T02:33:26.364Z,982.01
2019-01-20T02:34:26.507Z,982.02
2019-01-20T02:35:26.654Z,981.99
2019-01-20T02:36:26.840Z,981.97
2019-01-20T02:37:27.017Z,981.97
2019-01-20T02:38:27.197Z,981.98
2019-01-20T02:39:27.363Z,982.00
2019-01-20T02:40:27.546Z,981.98
2019-01-20T02:41:27.725Z,981.97
2019-01-20T02:42:27.896Z,981.99
2019-01-20T02:43:28.069Z,982.00
2019-01-20T02:44:28.246Z,981.94
2019-01-20T02:45:28.425Z,981.93
2019-01-20T02:46:28.603Z,981.92
2019-01-20T02:47:28.778Z,981.95
2019-01-20T02:48:28.958Z,981.95
2019-01-20T02:49:29.132Z,981.93
2019-01-20T02:50:29.305Z,981.96
2019-01-20T02:51:29.480Z,981.95
2019-01-20T02:52:29.653Z,981.94
2019-01-20T02:53:29.831Z,981.97
2019-01-20T02:54:30.005Z,981.96
2019-01-20T02:55:30.182Z,981.96
2019-01-20T02:56:30.358Z,981.97
2019-01-20T02:57:30.530Z,981.94
2019-01-20T02:58:30.700Z,981.95
2019-01-20T02:59:30.876Z,981.97
2019-01-20T03:00:31.048Z,981.96
2019-01-20T03:01:31.223Z,982.00
2019-01-20T03:02:31.408Z,981.96
2019-01-20T03:03:31.568Z,981.96
2019-01-20T03:04:31.740Z,981.93
2019-01-20T03:05:31.917Z,981.92
2019-01-20T03:06:32.093Z,981.90
2019-01-20T03:07:32.266Z,981.91
2019-01-20T03:08:32.435Z,981.88
2019-01-20T03:09:32.623Z,981.89
2019-01-20T03:10:32.781Z,981.92
2019-01-20T03:11:32.958Z,981.95
2019-01-20T03:12:33.134Z,981.94
2019-01-20T03:13:33.307Z,981.89
2019-01-20T03:14:33.483Z,981.88
2019-01-20T03:15:33.661Z,981.91
2019-01-20T03:16:33.833Z,981.92
2019-01-20T03:17:34.005Z,981.91
2019-01-20T03:18:34.190Z,981.90
2019-01-20T03:19:34.374Z,981.93
2019-01-20T03:20:34.525Z,981.94
2019-01-20T03:21:34.706Z,981.94
2019-01-20T03:22:34.876Z,981.92
2019-01-20T03:23:35.050Z,981.97
2019-01-20T03:24:35.229Z,981.93
2019-01-20T03:25:35.405Z,981.93
2019-01-20T03:26:35.582Z,981.96
2019-01-20T03:27:35.758Z,981.97
2019-01-20T03:28:35.929Z,981.96
2019-01-20T03:29:36.112Z,981.97
2019-01-20T03:30:36.284Z,981.97
2019-01-20T03:31:36.460Z,981.98
2019-01-20T03:32:36.633Z,981.93
2019-01-20T03:33:36.809Z,981.97
2019-01-20T03:34:36.983Z,982.00
2019-01-20T03:35:37.152Z,981.97
2019-01-20T03:36:37.325Z,982.02
2019-01-20T03:37:37.503Z,982.04
2019-01-20T03:38:37.675Z,982.00
2019-01-20T03:39:37.847Z,982.02
2019-01-20T03:40:38.019Z,982.01
2019-01-20T03:41:38.191Z,982.09
2019-01-20T03:42:38.365Z,982.06
2019-01-20T03:43:38.540Z,982.05
2019-01-20T03:44:38.709Z,982.07
2019-01-20T03:45:38.881Z,982.04
2019-01-20T03:46:39.056Z,982.08
2019-01-20T03:47:39.233Z,982.06
2019-01-20T03:48:39.404Z,982.05
2019-01-20T03:49:39.582Z,982.07
2019-01-20T03:50:39.756Z,982.05
2019-01-20T03:51:39.927Z,982.10
2019-01-20T03:52:40.099Z,982.05
2019-01-20T03:53:40.279Z,982.05
2019-01-20T03:54:40.447Z,982.09
2019-01-20T03:55:40.631Z,982.09
2019-01-20T03:56:40.795Z,982.08
2019-01-20T03:57:40.967Z,982.07
2019-01-20T03:58:41.144Z,982.04
2019-01-20T03:59:41.314Z,982.06
2019-01-20T04:00:41.493Z,982.03
2019-01-20T04:01:41.663Z,982.01
2019-01-20T04:02:41.835Z,982.01
2019-01-20T04:03:42.010Z,982.02
2019-01-20T04:04:42.185Z,982.00
2019-01-20T04:05:42.361Z,982.01
2019-01-20T04:06:42.539Z,982.03
2019-01-20T04:07:42.711Z,982.02
2019-01-20T04:08:42.917Z,982.00
2019-01-20T04:09:43.055Z,981.98
2019-01-20T04:10:43.238Z,981.99
2019-01-20T04:11:43.404Z,981.96
2019-01-20T04:12:43.578Z,981.98
2019-01-20T04:13:43.753Z,981.98
2019-01-20T04:14:43.928Z,981.98
2019-01-20T04:15:44.099Z,981.99
2019-01-20T04:16:44.273Z,981.95
2019-01-20T04:17:44.448Z,982.00
2019-01-20T04:18:44.618Z,981.97
2019-01-20T04:19:44.798Z,981.97
2019-01-20T04:20:44.969Z,981.98
2019-01-20T04:21:45.193Z,982.00
2019-01-20T04:22:45.324Z,981.95
2019-01-20T04:23:45.496Z,982.01
2019-01-20T04:24:45.673Z,981.98
2019-01-20T04:25:45.843Z,981.97
2019-01-20T04:26:46.019Z,981.98
2019-01-20T04:27:46.192Z,982.01
2019-01-20T04:28:46.365Z,981.96
2019-01-20T04:29:46.545Z,982.00
2019-01-20T04:30:46.726Z,981.95
2019-01-20T04:31:46.894Z,981.95
2019-01-20T04:32:47.087Z,981.97
2019-01-20T04:33:47.289Z,981.92
2019-01-20T04:34:47.444Z,981.93
2019-01-20T04:35:47.623Z,981.94
2019-01-20T04:36:47.795Z,981.92
2019-01-20T04:37:47.957Z,981.95
2019-01-20T04:38:48.143Z,981.93
2019-01-20T04:39:48.313Z,981.95
2019-01-20T04:40:48.488Z,981.94
2019-01-20T04:41:48.697Z,981.91
2019-01-20T04:42:48.842Z,981.88
2019-01-20T04:43:49.020Z,981.86
2019-01-20T04:44:49.197Z,981.87
2019-01-20T04:45:49.365Z,981.87
2019-01-20T04:46:49.543Z,981.85
2019-01-20T04:47:49.736Z,981.83
2019-01-20T04:48:49.899Z,981.87
2019-01-20T04:49:50.069Z,981.89
2019-01-20T04:50:50.247Z,981.86
2019-01-20T04:51:50.422Z,981.88
2019-01-20T04:52:50.596Z,981.84
2019-01-20T04:53:50.764Z,981.83
2019-01-20T04:54:50.938Z,981.85
2019-01-20T04:55:51.111Z,981.86
2019-01-20T04:56:51.338Z,981.85
2019-01-20T04:57:51.458Z,981.83
2019-01-20T04:58:51.636Z,981.82
2019-01-20T04:59:51.793Z,981.83
2019-01-20T05:00:51.972Z,981.83
2019-01-20T05:01:52.138Z,981.83
2019-01-20T05:02:52.312Z,981.81
2019-01-20T05:03:52.483Z,981.83
2019-01-20T05:04:52.663Z,981.83
2019-01-20T05:05:52.842Z,981.85
2019-01-20T05:06:53.018Z,981.84
2019-01-20T05:07:53.187Z,981.85
2019-01-20T05:08:53.360Z,981.85
2019-01-20T05:09:53.537Z,981.88
2019-01-20T05:10:53.714Z,981.87
2019-01-20T05:11:53.898Z,981.86
2019-01-20T05:12:54.073Z,981.83
2019-01-20T05:13:54.249Z,981.84
2019-01-20T05:14:54.423Z,981.85
2019-01-20T05:15:54.596Z,981.87
2019-01-20T05:16:54.764Z,981.89
2019-01-20T05:17:54.935Z,981.85
2019-01-20T05:18:55.113Z,981.93
2019-01-20T05:19:55.281Z,981.90
2019-01-20T05:20:55.457Z,981.90
2019-01-20T05:21:55.630Z,981.91
2019-01-20T05:22:55.805Z,981.89
2019-01-20T05:23:55.976Z,981.90
2019-01-20T05:24:56.152Z,981.91
2019-01-20T05:25:56.326Z,981.93
2019-01-20T05:26:56.500Z,981.93
2019-01-20T05:27:56.671Z,981.94
2019-01-20T05:28:56.845Z,981.94
2019-01-20T05:29:57.027Z,981.87
2019-01-20T05:30:57.202Z,981.90
2019-01-20T05:31:57.376Z,981.94
2019-01-20T05:32:57.551Z,981.88
2019-01-20T05:33:57.727Z,981.91
2019-01-20T05:34:57.904Z,981.92
2019-01-20T05:35:58.080Z,981.90
2019-01-20T05:36:58.252Z,981.94
2019-01-20T05:37:58.431Z,981.94
2019-01-20T05:38:58.603Z,981.94
2019-01-20T05:39:58.779Z,981.96
2019-01-20T05:40:58.965Z,981.95
2019-01-20T05:41:59.134Z,981.97
2019-01-20T05:42:59.310Z,981.95
2019-01-20T05:43:59.485Z,981.95
2019-01-20T05:44:59.655Z,981.99
2019-01-20T05:45:59.826Z,982.00
2019-01-20T05:47:00.002Z,981.98
2019-01-20T05:48:00.199Z,982.00
2019-01-20T05:49:00.350Z,982.03
2019-01-20T05:50:00.528Z,982.00
2019-01-20T05:51:00.693Z,982.05
2019-01-20T05:52:00.873Z,982.03
2019-01-20T05:53:01.053Z,981.98
2019-01-20T05:54:01.238Z,982.03
2019-01-20T05:55:01.402Z,982.01
2019-01-20T05:56:02.033Z,982.02
2019-01-20T05:57:01.745Z,982.04
2019-01-20T05:58:01.919Z,982.02
2019-01-20T05:59:02.091Z,982.03
2019-01-20T06:00:02.268Z,982.03
2019-01-20T06:01:02.453Z,982.07
2019-01-20T06:02:02.613Z,982.02
2019-01-20T06:03:02.788Z,982.03
2019-01-20T06:04:02.960Z,982.02
2019-01-20T06:05:03.140Z,982.03
2019-01-20T06:06:03.322Z,982.01
2019-01-20T06:07:03.495Z,982.01
2019-01-20T06:08:03.675Z,982.01
2019-01-20T06:09:03.841Z,982.00
2019-01-20T06:10:04.021Z,982.01
2019-01-20T06:11:04.198Z,982.07
2019-01-20T06:12:04.370Z,982.06
2019-01-20T06:13:04.540Z,982.03
2019-01-20T06:14:04.714Z,982.07
2019-01-20T06:15:04.888Z,982.06
2019-01-20T06:16:05.062Z,982.10
2019-01-20T06:17:05.235Z,982.09
2019-01-20T06:18:05.409Z,982.10
2019-01-20T06:19:05.588Z,982.11
2019-01-20T06:20:05.756Z,982.16
2019-01-20T06:21:05.931Z,982.10
2019-01-20T06:22:06.111Z,982.07
2019-01-20T06:23:06.281Z,982.10
2019-01-20T06:24:06.450Z,982.08
2019-01-20T06:25:06.634Z,982.11
2019-01-20T06:26:06.795Z,982.11
2019-01-20T06:27:06.973Z,982.11
2019-01-20T06:28:07.155Z,982.12
2019-01-20T06:29:07.334Z,982.12
2019-01-20T06:30:07.504Z,982.12
2019-01-20T06:31:07.679Z,982.14
2019-01-20T06:32:07.851Z,982.11
2019-01-20T06:33:08.027Z,982.15
2019-01-20T06:34:08.203Z,982.17
2019-01-20T06:35:08.370Z,982.17
2019-01-20T06:36:08.813Z,982.14
2019-01-20T06:37:08.742Z,982.19
2019-01-20T06:38:08.915Z,982.18
2019-01-20T06:39:09.095Z,982.25
2019-01-20T06:40:09.270Z,982.27
2019-01-20T06:41:09.438Z,982.29
2019-01-20T06:42:09.618Z,982.29
2019-01-20T06:43:09.791Z,982.30
2019-01-20T06:44:09.961Z,982.30
2019-01-20T06:45:10.135Z,982.30
2019-01-20T06:46:10.310Z,982.35
2019-01-20T06:47:10.486Z,982.35
2019-01-20T06:48:10.659Z,982.34
2019-01-20T06:49:10.834Z,982.38
2019-01-20T06:50:11.003Z,982.41
2019-01-20T06:51:11.185Z,982.43
2019-01-20T06:52:11.357Z,982.42
2019-01-20T06:53:11.527Z,982.42
2019-01-20T06:54:11.719Z,982.46
2019-01-20T06:55:11.894Z,982.44
2019-01-20T06:56:12.066Z,982.45
2019-01-20T06:57:12.256Z,982.47
2019-01-20T06:58:12.411Z,982.51
2019-01-20T06:59:12.593Z,982.52
2019-01-20T07:00:12.754Z,982.49
2019-01-20T07:01:12.934Z,982.49
2019-01-20T07:02:13.111Z,982.52
2019-01-20T07:03:13.287Z,982.58
2019-01-20T07:04:13.454Z,982.59
2019-01-20T07:05:13.625Z,982.64
2019-01-20T07:06:13.801Z,982.63
2019-01-20T07:07:13.970Z,982.64
2019-01-20T07:08:14.139Z,982.70
2019-01-20T07:09:14.313Z,982.71
2019-01-20T07:10:14.489Z,982.70
2019-01-20T07:11:14.659Z,982.71
2019-01-20T07:12:14.836Z,982.72
2019-01-20T07:13:15.006Z,982.70
2019-01-20T07:14:15.194Z,982.76
2019-01-20T07:15:15.368Z,982.73
2019-01-20T07:16:15.545Z,982.72
2019-01-20T07:17:15.716Z,982.76
2019-01-20T07:18:15.885Z,982.78
2019-01-20T07:19:16.058Z,982.76
2019-01-20T07:20:16.229Z,982.76
2019-01-20T07:21:16.404Z,982.82
2019-01-20T07:22:16.587Z,982.81
2019-01-20T07:23:16.753Z,982.84
2019-01-20T07:24:16.927Z,982.83
2019-01-20T07:25:17.104Z,982.86
2019-01-20T07:26:17.279Z,982.84
2019-01-20T07:27:17.451Z,982.86
2019-01-20T07:28:17.640Z,982.87
2019-01-20T07:29:17.808Z,982.89
2019-01-20T07:30:17.985Z,982.91
2019-01-20T07:31:18.161Z,982.94
2019-01-20T07:32:18.335Z,982.93
2019-01-20T07:33:18.505Z,982.88
2019-01-20T07:34:18.676Z,982.89
2019-01-20T07:35:18.859Z,982.96
2019-01-20T07:36:19.030Z,982.94
2019-01-20T07:37:19.199Z,982.97
2019-01-20T07:38:19.385Z,982.97
2019-01-20T07:39:19.558Z,983.01
2019-01-20T07:40:19.761Z,983.03
2019-01-20T07:41:19.899Z,983.13
2019-01-20T07:42:20.082Z,983.11
2019-01-20T07:43:20.254Z,983.13
2019-01-20T07:44:20.427Z,983.13
2019-01-20T07:45:20.602Z,983.19
2019-01-20T07:46:20.774Z,983.19
2019-01-20T07:47:20.957Z,983.23
2019-01-20T07:48:21.134Z,983.32
2019-01-20T07:49:21.311Z,983.30
2019-01-20T07:50:21.490Z,983.38
2019-01-20T07:51:21.674Z,983.36
2019-01-20T07:52:21.867Z,983.38
2019-01-20T07:53:22.056Z,983.36
2019-01-20T07:54:22.221Z,983.38
2019-01-20T07:55:22.401Z,983.46
2019-01-20T07:56:22.583Z,983.46
2019-01-20T07:57:22.760Z,983.48
2019-01-20T07:58:22.939Z,983.59
2019-01-20T07:59:23.125Z,983.64
2019-01-20T08:00:23.302Z,983.66
2019-01-20T08:01:23.478Z,983.66
2019-01-20T08:02:23.660Z,983.74
2019-01-20T08:03:23.843Z,983.76
2019-01-20T08:04:24.026Z,983.76
2019-01-20T08:05:24.211Z,983.75
2019-01-20T08:06:24.389Z,983.78
2019-01-20T08:07:24.574Z,983.79
2019-01-20T08:08:24.756Z,983.81
2019-01-20T08:09:24.943Z,983.80
2019-01-20T08:10:25.459Z,983.86
2019-01-20T08:11:25.263Z,983.90
2019-01-20T08:12:25.448Z,983.88
2019-01-20T08:13:25.626Z,983.93
2019-01-20T08:14:25.812Z,983.96
2019-01-20T08:15:25.996Z,984.02
2019-01-20T08:16:26.185Z,984.04
2019-01-20T08:17:26.373Z,984.04
2019-01-20T08:18:26.562Z,984.10
2019-01-20T08:19:26.750Z,984.16
2019-01-20T08:20:26.939Z,984.13
2019-01-20T08:21:27.123Z,984.15
2019-01-20T08:22:27.312Z,984.15
2019-01-20T08:23:27.492Z,984.19
2019-01-20T08:24:27.672Z,984.20
2019-01-20T08:25:27.867Z,984.17
2019-01-20T08:26:28.049Z,984.18
2019-01-20T08:27:28.237Z,984.21
2019-01-20T08:28:28.426Z,984.18
2019-01-20T08:29:28.614Z,984.16
2019-01-20T08:30:28.798Z,984.21
2019-01-20T08:31:28.996Z,984.26
2019-01-20T08:32:29.181Z,984.26
2019-01-20T08:33:29.368Z,984.29
2019-01-20T08:34:29.573Z,984.33
2019-01-20T08:35:29.746Z,984.35
2019-01-20T08:36:29.935Z,984.37
2019-01-20T08:37:30.121Z,984.41
2019-01-20T08:38:30.315Z,984.45
2019-01-20T08:39:30.501Z,984.42
2019-01-20T08:40:30.695Z,984.43
2019-01-20T08:41:30.879Z,984.43
2019-01-20T08:42:31.078Z,984.45
2019-01-20T08:43:31.967Z,984.46
2019-01-20T08:44:31.467Z,984.42
2019-01-20T08:45:31.655Z,984.48
2019-01-20T08:46:31.849Z,984.51
2019-01-20T08:47:32.044Z,984.53
2019-01-20T08:48:32.495Z,984.54
2019-01-20T08:49:32.431Z,984.55
2019-01-20T08:50:32.625Z,984.60
2019-01-20T08:51:32.819Z,984.60
2019-01-20T08:52:33.012Z,984.60
2019-01-20T08:53:33.200Z,984.58
2019-01-20T08:54:33.397Z,984.65
2019-01-20T08:55:33.591Z,984.64
2019-01-20T08:56:33.778Z,984.64
2019-01-20T08:57:33.972Z,984.67
2019-01-20T08:58:34.163Z,984.69
2019-01-20T08:59:34.358Z,984.68
2019-01-20T09:00:34.565Z,984.71
2019-01-20T09:01:34.748Z,984.69
2019-01-20T09:02:34.943Z,984.67
2019-01-20T09:03:35.138Z,984.70
2019-01-20T09:04:35.335Z,984.72
2019-01-20T09:05:35.533Z,984.76
2019-01-20T09:06:35.728Z,984.77
2019-01-20T09:07:35.924Z,984.79
2019-01-20T09:08:36.116Z,984.84
2019-01-20T09:09:36.319Z,984.82
2019-01-20T09:10:36.535Z,984.78
2019-01-20T09:11:36.723Z,984.83
2019-01-20T09:12:36.915Z,984.81
2019-01-20T09:13:39.825Z,984.87
2019-01-20T09:14:37.314Z,984.85
2019-01-20T09:15:37.510Z,984.84
2019-01-20T09:16:37.702Z,984.87
2019-01-20T09:17:37.908Z,984.83
2019-01-20T09:18:38.107Z,984.84
2019-01-20T09:19:38.300Z,984.85
2019-01-20T09:20:38.500Z,984.84
2019-01-20T09:21:38.688Z,984.86
2019-01-20T09:22:38.889Z,984.89
2019-01-20T09:23:39.085Z,984.89
2019-01-20T09:24:39.300Z,984.90
2019-01-20T09:25:39.486Z,984.91
2019-01-20T09:26:39.678Z,984.91
2019-01-20T09:27:39.883Z,984.91
2019-01-20T09:28:40.088Z,984.89
2019-01-20T09:29:40.929Z,984.86
2019-01-20T09:30:40.476Z,984.88
2019-01-20T09:31:40.656Z,984.87
2019-01-20T09:32:40.873Z,984.87
2019-01-20T09:33:41.079Z,984.91
2019-01-20T09:34:41.270Z,984.85
2019-01-20T09:35:41.473Z,984.90
2019-01-20T09:36:41.663Z,984.93
2019-01-20T09:37:41.850Z,984.92
2019-01-20T09:38:42.046Z,984.92
2019-01-20T09:39:42.246Z,984.90
2019-01-20T09:40:42.444Z,984.90
2019-01-20T09:41:42.651Z,984.92
2019-01-20T09:42:42.826Z,984.93
2019-01-20T09:43:47.151Z,984.96
2019-01-20T09:44:43.220Z,984.95
2019-01-20T09:45:43.434Z,985.01
2019-01-20T09:46:43.621Z,984.97
2019-01-20T09:47:43.820Z,984.99
2019-01-20T09:48:44.010Z,985.01
2019-01-20T09:49:44.204Z,985.04
2019-01-20T09:50:44.405Z,985.04
2019-01-20T09:51:44.601Z,985.00
2019-01-20T09:52:44.799Z,984.98
2019-01-20T09:53:44.993Z,985.01
2019-01-20T09:54:45.194Z,984.98
2019-01-20T09:55:45.389Z,984.96
2019-01-20T09:56:45.594Z,984.97
2019-01-20T09:57:45.799Z,984.96
2019-01-20T09:58:46.007Z,984.95
2019-01-20T09:59:46.210Z,984.97
2019-01-20T10:00:46.411Z,984.98
2019-01-20T10:01:46.596Z,984.99
2019-01-20T10:04:29.514Z,984.97
2019-01-20T10:05:29.783Z,984.95
2019-01-20T10:06:29.909Z,984.97
2019-01-20T10:07:30.103Z,984.95
2019-01-20T10:08:30.300Z,984.96
2019-01-20T10:09:30.494Z,984.97
2019-01-20T10:10:30.693Z,984.96
2019-01-20T10:11:30.886Z,984.94
2019-01-20T10:12:31.079Z,984.96
2019-01-20T10:13:31.292Z,984.98
2019-01-20T10:14:31.501Z,984.97
2019-01-20T10:15:31.697Z,985.01
2019-01-20T10:16:31.902Z,985.00
2019-01-20T10:17:32.094Z,984.98
2019-01-20T10:18:32.289Z,985.00
2019-01-20T10:19:32.496Z,985.02
2019-01-20T10:20:32.687Z,985.02
2019-01-20T10:21:32.882Z,985.06
2019-01-20T10:22:33.079Z,985.02
2019-01-20T10:23:33.300Z,985.01
2019-01-20T10:24:33.490Z,985.04
2019-01-20T10:25:33.690Z,985.02
2019-01-20T10:26:33.889Z,985.02
2019-01-20T10:27:35.587Z,985.03
2019-01-20T10:28:34.279Z,985.02
2019-01-20T10:29:34.474Z,985.08
2019-01-20T10:30:34.676Z,985.04
2019-01-20T10:31:34.877Z,985.06
2019-01-20T10:32:35.072Z,985.09
2019-01-20T10:33:35.267Z,985.11
2019-01-20T10:34:35.470Z,985.13
2019-01-20T10:35:35.668Z,985.12
2019-01-20T10:36:35.866Z,985.12
2019-01-20T10:37:36.065Z,985.17
2019-01-20T10:38:37.461Z,985.17
2019-01-20T10:39:36.466Z,985.13
2019-01-20T10:40:36.669Z,985.14
2019-01-20T10:41:36.872Z,985.12
2019-01-20T10:42:37.069Z,985.13
2019-01-20T10:43:37.272Z,985.12
2019-01-20T10:44:37.466Z,985.08
2019-01-20T10:45:37.670Z,985.14
2019-01-20T10:46:37.865Z,985.15
2019-01-20T10:47:38.060Z,985.14
2019-01-20T10:48:38.260Z,985.15
2019-01-20T10:49:38.466Z,985.13
2019-01-20T10:50:38.661Z,985.11
2019-01-20T10:51:38.857Z,985.12
2019-01-20T10:52:39.057Z,985.09
2019-01-20T10:53:39.262Z,985.09
2019-01-20T10:54:39.462Z,985.13
2019-01-20T10:55:39.663Z,985.12
2019-01-20T10:56:39.854Z,985.09
2019-01-20T10:57:40.050Z,985.10
2019-01-20T10:58:40.266Z,985.12
2019-01-20T10:59:40.460Z,985.15
2019-01-20T11:00:40.655Z,985.13
2019-01-20T11:01:40.879Z,985.13
2019-01-20T11:02:41.072Z,985.12
2019-01-20T11:03:41.270Z,985.15
2019-01-20T11:04:41.464Z,985.14
2019-01-20T11:05:41.663Z,985.11
2019-01-20T11:06:41.854Z,985.13
2019-01-20T11:07:42.062Z,985.13
2019-01-20T11:08:42.260Z,985.16
2019-01-20T11:09:42.453Z,985.13
2019-01-20T11:10:42.641Z,985.11
2019-01-20T11:11:42.839Z,985.13
2019-01-20T11:12:43.035Z,985.14
2019-01-20T11:13:43.226Z,985.12
2019-01-20T11:14:43.422Z,985.14
2019-01-20T11:15:43.618Z,985.17
2019-01-20T11:16:43.810Z,985.16
2019-01-20T11:17:44.033Z,985.17
2019-01-20T11:18:44.214Z,985.17
2019-01-20T11:19:44.412Z,985.15
2019-01-20T11:20:44.609Z,985.15
2019-01-20T11:21:44.804Z,985.21
2019-01-20T11:22:45.000Z,985.18
2019-01-20T11:23:45.200Z,985.18
2019-01-20T11:24:45.392Z,985.17
2019-01-20T11:25:45.594Z,985.16
2019-01-20T11:26:45.781Z,985.21
2019-01-20T11:27:45.978Z,985.22
2019-01-20T11:28:46.176Z,985.22
2019-01-20T11:29:46.367Z,985.24
2019-01-20T11:30:46.563Z,985.27
2019-01-20T11:31:46.758Z,985.29
2019-01-20T11:32:46.957Z,985.30
2019-01-20T11:33:47.168Z,985.24
2019-01-20T11:34:47.365Z,985.21
2019-01-20T11:35:47.562Z,985.24
2019-01-20T11:36:47.756Z,985.20
2019-01-20T11:37:47.949Z,985.21
2019-01-20T11:38:48.141Z,985.22
2019-01-20T11:39:48.341Z,985.20
2019-01-20T11:40:48.538Z,985.16
2019-01-20T11:41:48.731Z,985.18
2019-01-20T11:42:48.930Z,985.21
2019-01-20T11:43:49.119Z,985.17
2019-01-20T11:44:49.317Z,985.21
2019-01-20T11:45:49.523Z,985.20
2019-01-20T11:46:49.717Z,985.21
2019-01-20T11:47:49.928Z,985.20
2019-01-20T11:48:50.122Z,985.19
2019-01-20T11:49:50.326Z,985.24
2019-01-20T11:50:50.525Z,985.21
2019-01-20T11:51:50.718Z,985.16
2019-01-20T11:52:50.914Z,985.18
2019-01-20T11:53:51.107Z,985.22
2019-01-20T11:54:51.299Z,985.24
2019-01-20T11:55:51.496Z,985.21
2019-01-20T11:56:51.696Z,985.21
2019-01-20T11:57:51.892Z,985.25
2019-01-20T11:58:52.088Z,985.21
2019-01-20T11:59:52.287Z,985.22
2019-01-20T12:00:52.511Z,985.20
2019-01-20T12:01:52.683Z,985.19
2019-01-20T12:02:52.873Z,985.17
2019-01-20T12:03:53.067Z,985.18
2019-01-20T12:04:53.255Z,985.18
2019-01-20T12:05:53.447Z,985.18
2019-01-20T12:06:53.644Z,985.17
2019-01-20T12:07:54.284Z,985.17
2019-01-20T12:08:54.038Z,985.18
2019-01-20T12:09:54.257Z,985.19
2019-01-20T12:10:54.434Z,985.15
2019-01-20T12:11:54.641Z,985.17
2019-01-20T12:12:54.831Z,985.16
2019-01-20T12:13:55.020Z,985.19
2019-01-20T12:14:55.230Z,985.21
2019-01-20T12:15:55.413Z,985.23
2019-01-20T12:16:55.626Z,985.19
2019-01-20T12:17:55.809Z,985.17
2019-01-20T12:18:56.004Z,985.21
2019-01-20T12:19:56.201Z,985.19
2019-01-20T12:20:56.397Z,985.18
2019-01-20T12:21:56.586Z,985.16
2019-01-20T12:22:56.778Z,985.15
2019-01-20T12:23:56.980Z,985.14
2019-01-20T12:24:57.196Z,985.15
2019-01-20T12:25:57.396Z,985.14
2019-01-20T12:26:57.594Z,985.14
2019-01-20T12:27:57.780Z,985.12
2019-01-20T12:28:57.991Z,985.21
2019-01-20T12:29:58.166Z,985.16
2019-01-20T12:30:58.358Z,985.17
2019-01-20T12:31:58.565Z,985.17
2019-01-20T12:32:58.770Z,985.13